createdAt,value
2023-05-11T00:00:37.859Z,30.67
2023-05-11T00:03:05.157Z,33.40
2023-05-11T00:05:31.879Z,32.20
2023-05-11T00:07:59.145Z,31.30
2023-05-11T00:10:25.835Z,32.28
2023-05-11T00:12:52.745Z,33.45
2023-05-11T00:15:19.374Z,32.45
2023-05-11T00:17:46.630Z,32.63
2023-05-11T00:20:13.239Z,32.05
2023-05-11T00:22:41.205Z,32.92
2023-05-11T00:25:09.386Z,33.13
2023-05-11T00:27:36.314Z,32.20
2023-05-11T00:30:02.995Z,33.33
2023-05-11T00:32:30.194Z,31.65
2023-05-11T00:34:56.847Z,32.53
2023-05-11T00:37:25.913Z,32.55
2023-05-11T00:39:52.845Z,32.13
2023-05-11T00:42:20.312Z,30.48
2023-05-11T00:44:47.064Z,32.03
2023-05-11T00:47:14.461Z,32.40
2023-05-11T00:49:41.920Z,31.85
2023-05-11T00:52:09.504Z,34.15
2023-05-11T00:54:36.709Z,33.38
2023-05-11T00:57:04.280Z,34.30
2023-05-11T00:59:31.057Z,33.20
2023-05-11T01:01:58.439Z,34.15
2023-05-11T01:04:25.806Z,33.95
2023-05-11T01:07:24.163Z,34.88
2023-05-11T01:10:09.801Z,35.05
2023-05-11T01:12:56.492Z,35.15
2023-05-11T01:15:30.752Z,35.33
2023-05-11T01:18:16.676Z,35.15
2023-05-11T01:20:47.068Z,37.83
2023-05-11T01:23:44.562Z,35.80
2023-05-11T01:26:31.418Z,36.30
2023-05-11T01:29:10.713Z,37.20
2023-05-11T01:31:42.710Z,37.28
2023-05-11T01:34:24.503Z,38.08
2023-05-11T01:37:05.379Z,37.88
2023-05-11T01:39:42.859Z,40.20
2023-05-11T01:42:10.890Z,40.83
2023-05-11T01:44:42.206Z,42.78
2023-05-11T01:47:12.125Z,41.40
2023-05-11T01:49:42.236Z,41.58
2023-05-11T01:52:11.330Z,40.83
2023-05-11T01:54:40.567Z,42.53
2023-05-11T01:57:09.702Z,42.15
2023-05-11T01:59:39.585Z,44.70
2023-05-11T02:02:08.701Z,41.40
2023-05-11T02:04:37.275Z,41.50
2023-05-11T02:07:05.709Z,41.55
2023-05-11T02:09:34.626Z,42.53
2023-05-11T02:12:04.846Z,43.25
2023-05-11T02:14:36.389Z,39.85
2023-05-11T02:17:05.611Z,41.53
2023-05-11T02:19:35.260Z,40.55
2023-05-11T02:22:04.192Z,42.33
2023-05-11T02:24:33.265Z,41.50
2023-05-11T02:27:00.888Z,42.50
2023-05-11T02:29:27.830Z,43.67
2023-05-11T02:32:06.676Z,41.05
2023-05-11T02:34:41.049Z,41.45
2023-05-11T02:37:13.196Z,41.70
2023-05-11T02:39:44.406Z,42.30
2023-05-11T02:42:15.566Z,42.30
2023-05-11T02:44:54.912Z,44.65
2023-05-11T02:47:25.571Z,42.70
2023-05-11T02:49:57.327Z,43.97
2023-05-11T02:52:28.363Z,43.13
2023-05-11T02:54:56.979Z,44.45
2023-05-11T02:57:24.491Z,44.40
2023-05-11T02:59:52.384Z,45.38
2023-05-11T03:02:19.410Z,44.90
2023-05-11T03:04:47.130Z,43.20
2023-05-11T03:07:13.947Z,42.88
2023-05-11T03:09:41.399Z,44.55
2023-05-11T03:12:09.235Z,44.13
2023-05-11T03:14:38.244Z,45.40
2023-05-11T03:17:06.721Z,45.40
2023-05-11T03:19:34.262Z,44.50
2023-05-11T03:22:01.860Z,48.50
2023-05-11T03:24:30.083Z,47.05
2023-05-11T03:26:58.363Z,45.53
2023-05-11T03:29:29.179Z,49.60
2023-05-11T03:31:55.992Z,48.92
2023-05-11T03:34:24.234Z,48.47
2023-05-11T03:36:52.392Z,46.90
2023-05-11T03:39:22.540Z,47.63
2023-05-11T03:41:50.560Z,48.72
2023-05-11T03:44:22.169Z,49.17
2023-05-11T03:46:50.803Z,48.10
2023-05-11T03:49:19.695Z,47.42
2023-05-11T03:51:47.099Z,48.83
2023-05-11T03:54:14.495Z,47.97
2023-05-11T03:56:41.219Z,49.08
2023-05-11T03:59:09.840Z,49.72
2023-05-11T04:01:36.752Z,50.40
2023-05-11T04:04:04.303Z,51.47
2023-05-11T04:06:31.410Z,50.88
2023-05-11T04:09:12.481Z,50.78
2023-05-11T04:11:39.382Z,53.10
2023-05-11T04:14:06.612Z,53.53
2023-05-11T04:16:33.498Z,54.47
2023-05-11T04:19:02.437Z,56.80
2023-05-11T04:21:29.111Z,53.55
2023-05-11T04:23:56.581Z,53.95
2023-05-11T04:26:24.330Z,56.42
2023-05-11T04:28:51.597Z,57.13
2023-05-11T04:31:18.209Z,53.42
2023-05-11T04:33:45.432Z,56.30
2023-05-11T04:36:12.497Z,56.50
2023-05-11T04:38:39.718Z,55.28
2023-05-11T04:41:08.803Z,57.25
2023-05-11T04:43:36.851Z,55.35
2023-05-11T04:46:04.034Z,56.95
2023-05-11T04:48:31.067Z,58.42
2023-05-11T04:50:58.922Z,58.33
2023-05-11T04:53:30.486Z,59.17
2023-05-11T04:55:57.825Z,57.75
2023-05-11T04:58:24.510Z,60.10
2023-05-11T05:00:51.879Z,61.47
2023-05-11T05:03:19.218Z,63.70
2023-05-11T05:05:46.713Z,66.78
2023-05-11T05:08:13.402Z,66.32
2023-05-11T05:10:40.700Z,69.38
2023-05-11T05:13:07.282Z,68.07
2023-05-11T05:15:34.523Z,67.65
2023-05-11T05:18:01.330Z,68.60
2023-05-11T05:20:29.601Z,68.15
2023-05-11T05:22:58.816Z,66.25
2023-05-11T05:25:25.783Z,66.57
2023-05-11T05:27:53.145Z,66.10
2023-05-11T05:30:20.700Z,64.28
2023-05-11T05:32:48.977Z,63.55
2023-05-11T05:35:15.674Z,62.00
2023-05-11T05:37:43.621Z,59.80
2023-05-11T05:40:10.989Z,58.70
2023-05-11T05:42:44.189Z,60.75
2023-05-11T05:45:14.869Z,59.05
2023-05-11T05:47:42.793Z,59.72
2023-05-11T05:50:10.033Z,58.35
2023-05-11T05:52:37.559Z,60.22
2023-05-11T05:55:04.515Z,58.42
2023-05-11T05:57:31.923Z,57.55
2023-05-11T05:59:58.552Z,56.58
2023-05-11T06:02:25.850Z,57.40
2023-05-11T06:04:53.366Z,54.05
2023-05-11T06:07:20.909Z,50.80
2023-05-11T06:09:47.562Z,57.50
2023-05-11T06:12:14.917Z,57.13
2023-05-11T06:14:45.745Z,56.20
2023-05-11T06:17:13.282Z,56.85
2023-05-11T06:19:40.481Z,55.35
2023-05-11T06:22:09.326Z,55.28
2023-05-11T06:24:36.486Z,57.58
2023-05-11T06:27:04.599Z,56.90
2023-05-11T06:29:32.382Z,55.33
2023-05-11T06:32:01.740Z,55.13
2023-05-11T06:34:31.061Z,53.08
2023-05-11T06:37:02.791Z,54.97
2023-05-11T06:39:29.405Z,52.92
2023-05-11T06:41:58.687Z,52.38
2023-05-11T06:44:28.498Z,51.50
2023-05-11T06:46:57.687Z,52.72
2023-05-11T06:49:24.360Z,50.60
2023-05-11T06:51:52.087Z,52.55
2023-05-11T06:54:22.121Z,51.10
2023-05-11T06:56:49.367Z,49.72
2023-05-11T06:59:16.034Z,49.45
2023-05-11T07:01:43.346Z,47.80
2023-05-11T07:04:10.220Z,48.47
2023-05-11T07:06:37.709Z,48.05
2023-05-11T07:09:04.645Z,46.13
2023-05-11T07:11:32.454Z,46.95
2023-05-11T07:13:59.130Z,47.05
2023-05-11T07:16:26.504Z,47.72
2023-05-11T07:18:53.330Z,46.58
2023-05-11T07:21:22.309Z,43.65
2023-05-11T07:23:48.972Z,41.58
2023-05-11T07:26:16.646Z,42.17
2023-05-11T07:28:43.244Z,42.55
2023-05-11T07:31:10.668Z,41.58
2023-05-11T07:33:38.261Z,39.65
2023-05-11T07:36:06.896Z,37.60
2023-05-11T07:38:33.582Z,41.67
2023-05-11T07:41:00.698Z,42.03
2023-05-11T07:43:27.425Z,44.80
2023-05-11T07:45:54.778Z,45.38
2023-05-11T07:48:21.632Z,46.28
2023-05-11T07:50:49.829Z,47.03
2023-05-11T07:53:16.964Z,47.47
2023-05-11T07:55:44.429Z,47.30
2023-05-11T07:58:11.168Z,48.40
2023-05-11T08:00:38.504Z,48.03
2023-05-11T08:03:05.146Z,49.88
2023-05-11T08:05:38.083Z,49.50
2023-05-11T08:08:05.250Z,47.47
2023-05-11T08:10:32.519Z,45.40
2023-05-11T08:13:00.130Z,45.47
2023-05-11T08:15:28.281Z,45.15
2023-05-11T08:17:55.052Z,44.50
2023-05-11T08:20:22.425Z,42.95
2023-05-11T08:22:49.045Z,41.85
2023-05-11T08:25:16.613Z,43.03
2023-05-11T08:27:43.581Z,41.78
2023-05-11T08:30:11.863Z,42.92
2023-05-11T08:32:57.248Z,45.72
2023-05-11T08:35:26.037Z,43.70
2023-05-11T08:37:52.641Z,48.20
2023-05-11T08:40:21.355Z,48.15
2023-05-11T08:42:55.362Z,50.67
2023-05-11T08:45:22.939Z,50.20
2023-05-11T08:47:50.447Z,54.00
2023-05-11T08:50:17.359Z,55.22
2023-05-11T08:52:44.416Z,56.08
2023-05-11T08:55:11.424Z,53.85
2023-05-11T08:57:39.415Z,54.35
2023-05-11T09:00:08.355Z,54.20
2023-05-11T09:02:35.680Z,50.88
2023-05-11T09:05:04.359Z,50.78
2023-05-11T09:07:34.018Z,50.25
2023-05-11T09:10:01.356Z,47.35
2023-05-11T09:12:28.932Z,45.15
2023-05-11T09:15:01.906Z,45.42
2023-05-11T09:17:29.759Z,46.15
2023-05-11T09:20:00.453Z,43.05
2023-05-11T09:22:30.575Z,41.45
2023-05-11T09:24:59.441Z,38.90
2023-05-11T09:27:26.134Z,34.60
2023-05-11T09:29:56.296Z,36.97
2023-05-11T09:32:23.920Z,35.15
2023-05-11T09:34:50.664Z,36.53
2023-05-11T09:37:18.962Z,30.55
2023-05-11T09:40:13.958Z,31.05
2023-05-11T09:42:32.608Z,30.70
2023-05-11T09:44:59.216Z,33.17
2023-05-11T09:47:27.455Z,34.42
2023-05-11T09:49:54.218Z,33.72
2023-05-11T09:52:21.643Z,33.28
2023-05-11T09:54:51.023Z,29.10
2023-05-11T09:57:25.914Z,30.70
2023-05-11T09:59:53.182Z,32.67
2023-05-11T10:02:29.503Z,31.63
2023-05-11T10:04:58.792Z,30.48
2023-05-11T10:07:30.622Z,33.95
2023-05-11T10:10:02.127Z,35.22
2023-05-11T10:12:31.352Z,32.38
2023-05-11T10:15:02.156Z,30.38
2023-05-11T10:17:30.895Z,28.55
2023-05-11T10:19:59.579Z,29.55
2023-05-11T10:22:28.876Z,28.23
2023-05-11T10:24:59.715Z,29.17
2023-05-11T10:27:27.876Z,29.48
2023-05-11T10:29:54.708Z,30.02
2023-05-11T10:32:22.855Z,26.27
2023-05-11T10:34:52.324Z,25.40
2023-05-11T10:37:21.355Z,25.33
2023-05-11T10:39:50.528Z,24.48
2023-05-11T10:42:33.640Z,23.88
2023-05-11T10:45:38.715Z,23.08
2023-05-11T10:48:31.385Z,22.67
2023-05-11T10:51:11.464Z,20.02
2023-05-11T10:53:44.208Z,21.45
2023-05-11T10:56:27.357Z,23.55
2023-05-11T10:59:27.821Z,21.00
2023-05-11T11:01:59.250Z,20.27
2023-05-11T11:04:40.884Z,20.42
2023-05-11T11:07:08.749Z,20.30
2023-05-11T11:09:50.795Z,19.90
2023-05-11T11:12:18.765Z,20.30
2023-05-11T11:14:55.025Z,20.83
2023-05-11T11:17:25.546Z,20.88
2023-05-11T11:19:52.406Z,19.77
2023-05-11T11:22:38.581Z,19.35
2023-05-11T11:25:06.918Z,17.90
2023-05-11T11:27:48.937Z,18.02
2023-05-11T11:30:28.423Z,21.00
2023-05-11T11:33:16.764Z,20.10
2023-05-11T11:35:43.801Z,22.67
2023-05-11T11:38:13.185Z,21.95
2023-05-11T11:40:50.792Z,23.63
2023-05-11T11:43:24.850Z,22.80
2023-05-11T11:46:00.021Z,25.15
2023-05-11T11:48:31.397Z,24.33
2023-05-11T11:51:04.085Z,24.77
2023-05-11T11:53:41.234Z,24.48
2023-05-11T11:56:15.192Z,23.20
2023-05-11T11:58:42.674Z,24.02
2023-05-11T12:01:12.262Z,23.85
2023-05-11T12:03:41.726Z,21.48
2023-05-11T12:06:10.041Z,23.52
2023-05-11T12:08:39.148Z,21.65
2023-05-11T12:11:06.723Z,22.45
2023-05-11T12:13:35.856Z,22.25
2023-05-11T12:16:09.300Z,20.45
2023-05-11T12:18:36.744Z,22.35
2023-05-11T12:21:03.516Z,23.65
2023-05-11T12:23:31.012Z,24.33
2023-05-11T12:26:05.150Z,24.45
2023-05-11T12:28:36.223Z,24.35
2023-05-11T12:31:02.879Z,24.27
2023-05-11T12:33:29.487Z,22.55
2023-05-11T12:35:57.503Z,23.30
2023-05-11T12:38:24.165Z,23.13
2023-05-11T12:40:58.347Z,22.60
2023-05-11T12:43:25.550Z,23.63
2023-05-11T12:45:52.770Z,23.85
2023-05-11T12:48:19.611Z,26.38
2023-05-11T12:50:46.935Z,26.27
2023-05-11T12:53:19.712Z,25.13
2023-05-11T12:56:00.760Z,24.67
2023-05-11T12:58:39.205Z,24.40
2023-05-11T13:01:09.273Z,23.77
2023-05-11T13:03:37.447Z,24.75
2023-05-11T13:06:06.822Z,24.67
2023-05-11T13:08:33.975Z,24.35
2023-05-11T13:11:17.315Z,26.33
2023-05-11T13:13:44.668Z,24.90
2023-05-11T13:16:11.915Z,25.55
2023-05-11T13:18:38.658Z,24.80
2023-05-11T13:21:09.499Z,24.58
2023-05-11T13:23:36.931Z,23.83
2023-05-11T13:26:04.669Z,26.95
2023-05-11T13:28:33.856Z,36.38
2023-05-11T13:31:01.942Z,38.80
2023-05-11T13:33:28.817Z,38.70
2023-05-11T13:35:55.977Z,40.72
2023-05-11T13:38:22.588Z,39.10
2023-05-11T13:40:49.866Z,38.72
2023-05-11T13:43:16.467Z,37.15
2023-05-11T13:45:43.694Z,31.58
2023-05-11T13:48:10.839Z,31.15
2023-05-11T13:50:38.246Z,32.95
2023-05-11T13:53:04.845Z,29.95
2023-05-11T13:55:32.528Z,29.42
2023-05-11T13:57:59.318Z,26.05
2023-05-11T14:00:26.728Z,27.23
2023-05-11T14:02:53.686Z,24.05
2023-05-11T14:05:21.418Z,23.75
2023-05-11T14:07:49.204Z,23.75
2023-05-11T14:10:17.799Z,21.60
2023-05-11T14:12:44.928Z,20.65
2023-05-11T14:15:12.400Z,22.10
2023-05-11T14:17:41.454Z,20.88
2023-05-11T14:20:09.725Z,21.33
2023-05-11T14:22:36.461Z,26.90
2023-05-11T14:25:03.472Z,24.60
2023-05-11T14:27:30.082Z,28.13
2023-05-11T14:29:57.088Z,34.22
2023-05-11T14:32:23.862Z,35.80
2023-05-11T14:34:51.187Z,35.83
2023-05-11T14:37:17.815Z,37.58
2023-05-11T14:39:45.201Z,34.38
2023-05-11T14:42:11.815Z,31.70
2023-05-11T14:44:39.188Z,32.08
2023-05-11T14:47:07.203Z,35.35
2023-05-11T14:49:34.503Z,33.50
2023-05-11T14:52:01.114Z,32.72
2023-05-11T14:54:28.361Z,31.00
2023-05-11T14:56:56.645Z,31.00
2023-05-11T14:59:24.623Z,31.08
2023-05-11T15:01:51.675Z,29.10
2023-05-11T15:04:18.924Z,27.33
2023-05-11T15:06:46.405Z,27.92
2023-05-11T15:09:13.517Z,29.67
2023-05-11T15:11:40.807Z,30.85
2023-05-11T15:14:07.524Z,26.45
2023-05-11T15:16:34.812Z,28.65
2023-05-11T15:19:01.584Z,27.48
2023-05-11T15:21:28.887Z,26.40
2023-05-11T15:23:55.967Z,27.88
2023-05-11T15:26:23.076Z,29.80
2023-05-11T15:28:50.005Z,27.92
2023-05-11T15:31:17.477Z,27.02
2023-05-11T15:33:44.563Z,29.23
2023-05-11T15:36:13.956Z,30.27
2023-05-11T15:38:41.181Z,32.95
2023-05-11T15:41:09.051Z,34.33
2023-05-11T15:43:35.941Z,33.75
2023-05-11T15:46:07.237Z,35.58
2023-05-11T15:48:36.891Z,32.92
2023-05-11T15:51:04.202Z,32.58
2023-05-11T15:53:31.239Z,31.30
2023-05-11T15:55:58.603Z,29.48
2023-05-11T15:58:25.348Z,29.85
2023-05-11T16:00:52.699Z,30.25
2023-05-11T16:03:19.614Z,28.65
2023-05-11T16:05:47.326Z,28.48
2023-05-11T16:08:14.424Z,30.58
2023-05-11T16:10:41.855Z,31.13
2023-05-11T16:13:09.441Z,30.27
2023-05-11T16:15:36.993Z,30.55
2023-05-11T16:18:05.133Z,31.38
2023-05-11T16:20:32.884Z,29.83
2023-05-11T16:22:59.600Z,29.42
2023-05-11T16:25:26.711Z,29.05
2023-05-11T16:27:53.292Z,30.48
2023-05-11T16:30:25.101Z,31.42
2023-05-11T16:32:53.253Z,29.65
2023-05-11T16:35:21.055Z,31.15
2023-05-11T16:37:48.218Z,32.30
2023-05-11T16:40:19.383Z,31.40
2023-05-11T16:42:47.217Z,31.65
2023-05-11T16:45:14.932Z,30.75
2023-05-11T16:47:41.927Z,30.20
2023-05-11T16:50:09.134Z,31.08
2023-05-11T16:52:35.732Z,30.33
2023-05-11T16:55:02.890Z,30.70
2023-05-11T16:57:29.589Z,29.30
2023-05-11T16:59:57.603Z,29.20
2023-05-11T17:02:24.390Z,21.63
2023-05-11T17:04:51.370Z,16.23
2023-05-11T17:07:18.017Z,11.30
2023-05-11T17:09:45.728Z,12.88
2023-05-11T17:12:12.367Z,13.55
2023-05-11T17:14:39.396Z,13.18
2023-05-11T17:17:07.866Z,10.82
2023-05-11T17:19:35.175Z,10.48
2023-05-11T17:22:02.112Z,10.13
2023-05-11T17:24:29.380Z,9.23
2023-05-11T17:26:56.032Z,10.40
2023-05-11T17:29:23.082Z,9.38
2023-05-11T17:31:51.347Z,9.82
2023-05-11T17:34:19.350Z,8.98
2023-05-11T17:36:46.274Z,8.80
2023-05-11T17:39:13.794Z,8.88
2023-05-11T17:41:40.503Z,8.32
2023-05-11T17:44:08.363Z,7.93
2023-05-11T17:46:35.744Z,7.85
2023-05-11T17:49:04.190Z,7.78
2023-05-11T17:51:31.071Z,7.57
2023-05-11T17:53:58.428Z,8.25
2023-05-11T17:56:25.161Z,7.57
2023-05-11T17:58:52.354Z,8.20
2023-05-11T18:01:19.514Z,8.93
2023-05-11T18:03:47.095Z,8.13
2023-05-11T18:06:14.520Z,8.52
2023-05-11T18:08:41.450Z,9.10
2023-05-11T18:11:10.691Z,8.77
2023-05-11T18:13:37.941Z,8.27
2023-05-11T18:16:05.146Z,8.43
2023-05-11T18:18:32.181Z,8.77
2023-05-11T18:21:05.217Z,8.77
2023-05-11T18:23:32.341Z,9.13
2023-05-11T18:26:00.011Z,9.35
2023-05-11T18:28:26.648Z,9.30
2023-05-11T18:30:54.424Z,9.52
2023-05-11T18:33:21.295Z,10.65
2023-05-11T18:35:50.591Z,10.07
2023-05-11T18:38:17.264Z,10.68
2023-05-11T18:40:45.048Z,10.57
2023-05-11T18:43:12.111Z,9.73
2023-05-11T18:45:41.203Z,10.40
2023-05-11T18:48:08.206Z,10.60
2023-05-11T18:50:36.036Z,10.93
2023-05-11T18:53:02.682Z,11.00
2023-05-11T18:55:35.392Z,10.32
2023-05-11T18:58:08.139Z,11.60
2023-05-11T19:00:38.434Z,10.38
2023-05-11T19:03:05.459Z,11.57
2023-05-11T19:05:32.957Z,12.23
2023-05-11T19:07:59.699Z,10.90
2023-05-11T19:10:26.723Z,11.63
2023-05-11T19:12:53.423Z,12.10
2023-05-11T19:15:20.421Z,12.90
2023-05-11T19:17:47.186Z,12.52
2023-05-11T19:20:14.728Z,13.85
2023-05-11T19:22:41.462Z,12.77
2023-05-11T19:25:09.571Z,13.35
2023-05-11T19:27:36.209Z,12.90
2023-05-11T19:30:04.459Z,12.73
2023-05-11T19:32:31.178Z,12.80
2023-05-11T19:34:58.134Z,13.60
2023-05-11T19:37:24.781Z,13.40
2023-05-11T19:39:51.734Z,13.32
2023-05-11T19:42:23.552Z,13.60
2023-05-11T19:44:58.671Z,12.65
2023-05-11T19:47:25.416Z,13.05
2023-05-11T19:49:52.109Z,13.13
2023-05-11T19:52:19.201Z,14.18
2023-05-11T19:54:46.869Z,13.27
2023-05-11T19:57:13.505Z,14.52
2023-05-11T19:59:40.336Z,14.70
2023-05-11T20:02:07.343Z,13.68
2023-05-11T20:04:34.712Z,15.23
2023-05-11T20:07:01.727Z,14.35
2023-05-11T20:09:28.741Z,15.00
2023-05-11T20:11:56.805Z,14.77
2023-05-11T20:14:24.101Z,15.68
2023-05-11T20:16:51.344Z,15.60
2023-05-11T20:19:17.970Z,16.67
2023-05-11T20:21:45.199Z,16.55
2023-05-11T20:24:11.810Z,15.60
2023-05-11T20:26:38.750Z,18.20
2023-05-11T20:29:06.664Z,21.13
2023-05-11T20:31:34.238Z,21.55
2023-05-11T20:36:31.253Z,20.23
2023-05-11T20:38:58.289Z,19.02
2023-05-11T20:41:25.552Z,15.40
2023-05-11T20:43:52.680Z,14.75
2023-05-11T20:46:20.860Z,14.23
2023-05-11T20:48:51.509Z,14.30
2023-05-11T20:51:23.458Z,14.27
2023-05-11T20:53:50.547Z,13.40
2023-05-11T20:56:17.829Z,13.25
2023-05-11T20:58:47.352Z,13.02
2023-05-11T21:01:14.871Z,13.40
2023-05-11T21:03:41.591Z,13.07
2023-05-11T21:06:09.085Z,13.35
2023-05-11T21:08:35.922Z,13.02
2023-05-11T21:11:03.271Z,13.55
2023-05-11T21:13:30.189Z,13.25
2023-05-11T21:15:58.940Z,13.18
2023-05-11T21:18:31.742Z,13.77
2023-05-11T21:20:59.718Z,14.73
2023-05-11T21:23:26.879Z,14.27
2023-05-11T21:25:55.216Z,14.80
2023-05-11T21:28:22.019Z,14.68
2023-05-11T21:30:50.236Z,16.13
2023-05-11T21:33:16.956Z,16.50
2023-05-11T21:35:44.590Z,16.55
2023-05-11T21:38:14.741Z,17.08
2023-05-11T21:40:42.299Z,16.02
2023-05-11T21:43:10.516Z,17.58
2023-05-11T21:45:38.675Z,17.20
2023-05-11T21:48:05.504Z,17.42
2023-05-11T21:50:32.945Z,16.95
2023-05-11T21:52:59.535Z,18.38
2023-05-11T21:55:26.848Z,17.65
2023-05-11T21:57:54.300Z,18.35
2023-05-11T22:00:22.826Z,17.48
2023-05-11T22:02:50.127Z,18.02
2023-05-11T22:05:17.728Z,18.92
2023-05-11T22:07:44.733Z,19.88
2023-05-11T22:10:12.500Z,19.02
2023-05-11T22:12:39.187Z,20.95
2023-05-11T22:15:08.865Z,20.90
2023-05-11T22:17:39.354Z,21.77
2023-05-11T22:20:07.356Z,21.75
2023-05-11T22:22:35.210Z,22.63
2023-05-11T22:25:02.760Z,23.48
2023-05-11T22:27:30.337Z,23.45
2023-05-11T22:29:57.659Z,23.63
2023-05-11T22:32:27.015Z,25.60
2023-05-11T22:35:01.608Z,24.13
2023-05-11T22:37:28.534Z,25.27
2023-05-11T22:39:56.194Z,26.17
2023-05-11T22:42:23.223Z,26.95
2023-05-11T22:44:50.725Z,26.45
2023-05-11T22:47:17.370Z,27.17
2023-05-11T22:49:44.694Z,28.58
2023-05-11T22:52:11.574Z,27.95
2023-05-11T22:54:39.640Z,30.15
2023-05-11T22:57:06.419Z,27.92
2023-05-11T22:59:34.849Z,29.23
2023-05-11T23:02:03.218Z,31.42
2023-05-11T23:04:32.307Z,31.60
2023-05-11T23:06:59.647Z,31.30
2023-05-11T23:09:27.801Z,32.00
2023-05-11T23:11:54.474Z,31.67
2023-05-11T23:14:21.897Z,30.98
2023-05-11T23:16:48.676Z,30.27
2023-05-11T23:19:15.971Z,31.60
2023-05-11T23:21:42.642Z,33.10
2023-05-11T23:24:10.077Z,31.45
2023-05-11T23:26:37.001Z,33.15
2023-05-11T23:29:04.329Z,30.05
2023-05-11T23:31:32.487Z,31.58
2023-05-11T23:34:00.731Z,30.92
2023-05-11T23:36:27.351Z,31.58
2023-05-11T23:38:54.927Z,30.63
2023-05-11T23:41:22.202Z,30.25
2023-05-11T23:43:49.624Z,32.17
2023-05-11T23:46:16.329Z,29.67
2023-05-11T23:48:43.624Z,29.63
2023-05-11T23:51:10.338Z,30.13
2023-05-11T23:53:38.364Z,30.75
2023-05-11T23:56:05.374Z,29.73
2023-05-11T23:58:32.665Z,29.90
